createdAt,value
2022-12-18T00:13:33.295Z,42.80
2022-12-18T00:23:41.025Z,42.70
2022-12-18T00:33:47.559Z,35.30
2022-12-18T00:43:55.488Z,37.20
2022-12-18T01:04:06.591Z,34.00
2022-12-18T01:14:12.440Z,34.40
2022-12-18T01:24:18.188Z,35.80
2022-12-18T01:44:59.300Z,34.90
2022-12-18T01:55:08.165Z,33.70
2022-12-18T02:05:17.041Z,32.10
2022-12-18T02:15:28.414Z,29.30
2022-12-18T02:25:47.706Z,30.40
2022-12-18T02:35:56.768Z,31.20
2022-12-18T02:46:17.660Z,31.70
2022-12-18T02:56:28.338Z,32.30
2022-12-18T03:06:39.296Z,34.10
2022-12-18T03:16:46.862Z,34.40
2022-12-18T03:26:55.703Z,36.50
2022-12-18T03:37:01.819Z,32.20
2022-12-18T03:47:12.342Z,34.70
2022-12-18T03:57:21.824Z,33.90
2022-12-18T04:07:27.803Z,31.20
2022-12-18T04:17:33.389Z,31.50
2022-12-18T04:37:43.075Z,36.40
2022-12-18T04:47:48.672Z,36.90
2022-12-18T05:07:58.399Z,43.20
2022-12-18T05:18:05.222Z,40.10
2022-12-18T05:28:10.828Z,41.80
2022-12-18T05:38:16.676Z,39.10
2022-12-18T05:48:22.698Z,43.80
2022-12-18T05:58:28.273Z,43.90
2022-12-18T06:08:33.888Z,40.60
2022-12-18T06:18:39.771Z,48.40
2022-12-18T06:28:45.556Z,43.50
2022-12-18T06:38:51.659Z,49.20
2022-12-18T06:48:57.295Z,45.80
2022-12-18T06:59:02.927Z,43.80
2022-12-18T07:09:08.659Z,47.60
2022-12-18T07:19:14.366Z,53.00
2022-12-18T07:29:20.023Z,51.90
2022-12-18T07:39:25.610Z,49.10
2022-12-18T07:59:35.443Z,48.80
2022-12-18T08:09:41.026Z,45.50
2022-12-18T08:19:46.737Z,45.70
2022-12-18T08:39:56.970Z,46.90
2022-12-18T08:50:02.728Z,49.10
2022-12-18T09:10:13.431Z,45.20
2022-12-18T09:30:23.896Z,58.80
2022-12-18T09:40:38.232Z,55.30
2022-12-18T09:50:44.985Z,58.60
2022-12-18T10:00:53.339Z,55.30
2022-12-18T10:11:04.323Z,44.80
2022-12-18T10:21:16.269Z,51.70
2022-12-18T10:31:24.722Z,39.10
2022-12-18T10:41:31.971Z,42.10
2022-12-18T10:51:39.763Z,40.80
2022-12-18T11:01:55.894Z,45.50
2022-12-18T11:12:03.816Z,39.70
2022-12-18T11:22:25.366Z,39.20
2022-12-18T11:32:41.348Z,40.80
2022-12-18T11:42:52.207Z,47.90
2022-12-18T11:53:02.783Z,47.60
2022-12-18T12:03:49.789Z,47.00
2022-12-18T12:14:08.981Z,45.60
2022-12-18T12:24:32.880Z,48.10
2022-12-18T12:34:59.513Z,46.70
2022-12-18T12:45:15.832Z,50.60
2022-12-18T12:55:24.442Z,52.30
2022-12-18T13:05:36.665Z,53.90
2022-12-18T13:15:46.193Z,43.10
2022-12-18T13:25:53.143Z,49.50
2022-12-18T13:36:10.874Z,43.30
2022-12-18T13:46:26.034Z,40.80
2022-12-18T13:56:33.973Z,41.30
2022-12-18T14:06:39.969Z,49.00
2022-12-18T14:16:47.774Z,37.50
2022-12-18T14:26:54.719Z,36.30
2022-12-18T14:37:01.168Z,40.00
2022-12-18T14:47:07.308Z,42.00
2022-12-18T14:57:23.560Z,40.70
2022-12-18T15:07:29.390Z,42.40
2022-12-18T15:17:35.311Z,42.20
2022-12-18T15:27:41.082Z,44.00
2022-12-18T15:37:47.298Z,40.70
2022-12-18T15:47:53.305Z,44.90
2022-12-18T15:58:00.792Z,42.70
2022-12-18T16:08:06.900Z,40.10
2022-12-18T16:18:12.613Z,40.60
2022-12-18T16:28:18.416Z,43.90
2022-12-18T16:38:24.228Z,43.30
2022-12-18T16:48:30.050Z,38.50
2022-12-18T16:58:35.990Z,41.50
2022-12-18T17:08:41.674Z,48.30
2022-12-18T17:18:47.762Z,43.90
2022-12-18T17:28:53.475Z,55.10
2022-12-18T17:39:01.063Z,51.90
2022-12-18T17:49:07.086Z,57.40
2022-12-18T17:59:13.779Z,50.20
2022-12-18T18:09:19.596Z,51.50
2022-12-18T18:19:26.728Z,53.70
2022-12-18T18:29:32.618Z,55.90
2022-12-18T18:39:39.153Z,54.80
2022-12-18T18:49:44.831Z,60.40
2022-12-18T18:59:50.651Z,48.50
2022-12-18T19:09:56.487Z,50.20
2022-12-18T19:20:02.293Z,51.10
2022-12-18T19:30:10.057Z,53.60
2022-12-18T19:40:15.914Z,59.80
2022-12-18T19:50:22.054Z,47.50
2022-12-18T20:00:27.730Z,44.80
2022-12-18T20:10:33.554Z,49.10
2022-12-18T20:20:39.345Z,50.30
2022-12-18T20:30:46.124Z,45.80
2022-12-18T20:40:51.925Z,45.90
2022-12-18T20:51:04.067Z,35.50
2022-12-18T21:01:12.751Z,34.40
2022-12-18T21:11:44.002Z,30.40
2022-12-18T21:21:50.030Z,35.70
2022-12-18T21:31:56.225Z,40.30
2022-12-18T21:42:19.590Z,32.30
2022-12-18T21:52:31.979Z,37.70
2022-12-18T22:02:38.290Z,41.50
2022-12-18T22:12:45.849Z,38.40
2022-12-18T22:22:52.585Z,34.00
2022-12-18T22:32:59.867Z,35.40
2022-12-18T22:43:06.919Z,31.70
2022-12-18T22:53:12.708Z,31.00
2022-12-18T23:03:18.401Z,30.20
2022-12-18T23:13:24.156Z,28.80
2022-12-18T23:23:29.795Z,26.10
2022-12-18T23:33:35.957Z,25.10
2022-12-18T23:43:41.931Z,29.50
2022-12-18T23:53:49.836Z,23.50
